createdAt,value
2022-11-06T00:00:44.161Z,98627.22
2022-11-06T00:03:12.713Z,98623.66
2022-11-06T00:05:59.546Z,98624.84
2022-11-06T00:08:33.865Z,98628.22
2022-11-06T00:11:02.547Z,98629.41
2022-11-06T00:13:32.205Z,98632.75
2022-11-06T00:16:05.670Z,98630.91
2022-11-06T00:18:34.301Z,98621.19
2022-11-06T00:21:08.950Z,98632.91
2022-11-06T00:23:37.751Z,98637.31
2022-11-06T00:26:10.539Z,98636.63
2022-11-06T00:28:39.200Z,98634.78
2022-11-06T00:31:11.413Z,98625.03
2022-11-06T00:33:40.144Z,98637.66
2022-11-06T00:36:11.803Z,98634.78
2022-11-06T00:38:40.288Z,98634.97
2022-11-06T00:41:17.703Z,98635.78
2022-11-06T00:43:49.727Z,98638.47
2022-11-06T00:46:20.080Z,98632.44
2022-11-06T00:48:48.734Z,98649.22
2022-11-06T00:51:20.029Z,98644.88
2022-11-06T00:53:48.683Z,98644.88
2022-11-06T00:56:19.652Z,98651.09
2022-11-06T00:58:49.002Z,98651.25
2022-11-06T01:01:20.365Z,98642.34
2022-11-06T01:03:53.513Z,98642.34
2022-11-06T01:06:23.511Z,98650.41
2022-11-06T01:08:52.457Z,98645.88
2022-11-06T01:11:22.308Z,98644.00
2022-11-06T01:13:52.407Z,98638.81
2022-11-06T01:16:22.580Z,98638.63
2022-11-06T01:18:51.401Z,98647.88
2022-11-06T01:21:23.083Z,98652.28
2022-11-06T01:23:54.433Z,98648.91
2022-11-06T01:26:37.138Z,98651.44
2022-11-06T01:29:08.585Z,98647.06
2022-11-06T01:31:38.531Z,98647.88
2022-11-06T01:34:07.268Z,98652.63
2022-11-06T01:36:35.818Z,98641.88
2022-11-06T01:39:07.028Z,98648.06
2022-11-06T01:41:36.854Z,98637.47
2022-11-06T01:44:09.745Z,98630.44
2022-11-06T01:46:39.871Z,98630.25
2022-11-06T01:49:19.478Z,98630.91
2022-11-06T01:51:50.369Z,98631.44
2022-11-06T01:54:18.933Z,98632.09
2022-11-06T01:56:50.002Z,98624.88
2022-11-06T01:59:20.708Z,98625.72
2022-11-06T02:01:50.730Z,98623.19
2022-11-06T02:04:28.401Z,98633.78
2022-11-06T02:06:57.365Z,98634.97
2022-11-06T02:09:26.604Z,98631.09
2022-11-06T02:11:58.993Z,98632.94
2022-11-06T02:14:33.127Z,98636.63
2022-11-06T02:17:05.730Z,98638.50
2022-11-06T02:19:50.709Z,98653.59
2022-11-06T02:23:01.870Z,98646.72
2022-11-06T02:25:42.047Z,98646.56
2022-11-06T02:28:15.134Z,98643.03
2022-11-06T02:30:46.150Z,98642.16
2022-11-06T02:33:16.910Z,98645.06
2022-11-06T02:35:48.332Z,98644.03
2022-11-06T02:38:20.010Z,98647.56
2022-11-06T02:40:53.318Z,98650.25
2022-11-06T02:43:26.153Z,98652.94
2022-11-06T02:45:57.073Z,98645.06
2022-11-06T02:48:29.453Z,98654.78
2022-11-06T02:50:58.744Z,98652.44
2022-11-06T02:53:27.440Z,98652.09
2022-11-06T02:55:57.772Z,98659.16
2022-11-06T02:58:32.851Z,98651.25
2022-11-06T03:01:04.949Z,98644.22
2022-11-06T03:03:35.412Z,98649.75
2022-11-06T03:06:07.799Z,98654.13
2022-11-06T03:08:40.533Z,98654.13
2022-11-06T03:11:14.804Z,98652.09
2022-11-06T03:13:52.400Z,98658.50
2022-11-06T03:16:31.153Z,98655.97
2022-11-06T03:19:05.776Z,98657.81
2022-11-06T03:21:39.992Z,98656.16
2022-11-06T03:24:16.057Z,98668.56
2022-11-06T03:26:47.342Z,98661.53
2022-11-06T03:29:19.700Z,98666.72
2022-11-06T03:31:51.975Z,98663.19
2022-11-06T03:34:27.106Z,98666.72
2022-11-06T03:37:00.483Z,98673.94
2022-11-06T03:39:31.356Z,98671.25
2022-11-06T03:42:04.178Z,98678.63
2022-11-06T03:44:35.650Z,98680.34
2022-11-06T03:47:08.912Z,98676.13
2022-11-06T03:49:40.725Z,98676.97
2022-11-06T03:52:13.407Z,98678.47
2022-11-06T03:54:44.153Z,98688.41
2022-11-06T03:57:15.280Z,98688.56
2022-11-06T03:59:47.768Z,98693.78
2022-11-06T04:02:16.757Z,98690.41
2022-11-06T04:04:48.984Z,98693.78
2022-11-06T04:07:19.124Z,98691.25
2022-11-06T04:10:10.425Z,98701.00
2022-11-06T04:13:01.943Z,98705.50
2022-11-06T04:15:34.317Z,98697.63
2022-11-06T04:18:02.962Z,98695.09
2022-11-06T04:20:54.321Z,98708.38
2022-11-06T04:23:32.547Z,98699.63
2022-11-06T04:26:24.206Z,98708.53
2022-11-06T04:28:57.515Z,98700.47
2022-11-06T04:31:32.422Z,98702.19
2022-11-06T04:34:03.927Z,98699.50
2022-11-06T04:36:44.938Z,98707.56
2022-11-06T04:39:19.732Z,98709.22
2022-11-06T04:41:52.857Z,98700.47
2022-11-06T04:44:25.407Z,98701.50
2022-11-06T04:46:58.196Z,98696.13
2022-11-06T04:49:26.786Z,98694.25
2022-11-06T04:51:55.518Z,98698.97
2022-11-06T04:54:24.111Z,98690.75
2022-11-06T04:56:52.613Z,98691.44
2022-11-06T04:59:21.149Z,98685.38
2022-11-06T05:01:49.902Z,98689.03
2022-11-06T05:04:20.072Z,98685.38
2022-11-06T05:06:48.592Z,98686.34
2022-11-06T05:09:17.211Z,98682.84
2022-11-06T05:11:45.816Z,98688.41
2022-11-06T05:14:14.305Z,98690.06
2022-11-06T05:16:43.124Z,98693.78
2022-11-06T05:19:11.749Z,98685.53
2022-11-06T05:21:59.326Z,98695.44
2022-11-06T05:24:27.945Z,98698.13
2022-11-06T05:26:59.642Z,98699.16
2022-11-06T05:29:28.618Z,98701.00
2022-11-06T05:31:57.076Z,98715.28
2022-11-06T05:34:25.745Z,98713.41
2022-11-06T05:36:55.569Z,98711.75
2022-11-06T05:39:24.215Z,98715.28
2022-11-06T05:41:52.809Z,98714.25
2022-11-06T05:44:21.499Z,98713.56
2022-11-06T05:46:50.418Z,98712.59
2022-11-06T05:49:19.603Z,98720.66
2022-11-06T05:51:48.500Z,98719.09
2022-11-06T05:54:18.449Z,98721.63
2022-11-06T05:56:46.964Z,98730.88
2022-11-06T05:59:15.525Z,98735.59
2022-11-06T06:01:44.237Z,98733.25
2022-11-06T06:04:12.901Z,98726.66
2022-11-06T06:06:41.571Z,98723.50
2022-11-06T06:09:10.085Z,98721.63
2022-11-06T06:11:40.068Z,98718.13
2022-11-06T06:14:08.568Z,98721.47
2022-11-06T06:16:37.263Z,98726.03
2022-11-06T06:19:05.835Z,98728.03
2022-11-06T06:21:34.362Z,98722.50
2022-11-06T06:24:02.908Z,98722.66
2022-11-06T06:26:31.507Z,98727.00
2022-11-06T06:29:02.231Z,98733.75
2022-11-06T06:31:31.088Z,98741.13
2022-11-06T06:33:59.903Z,98732.38
2022-11-06T06:36:28.627Z,98731.56
2022-11-06T06:38:57.856Z,98736.78
2022-11-06T06:41:26.627Z,98741.13
2022-11-06T06:43:55.517Z,98749.88
2022-11-06T06:46:25.734Z,98750.56
2022-11-06T06:48:54.551Z,98745.81
2022-11-06T06:51:24.181Z,98746.69
2022-11-06T06:53:53.229Z,98754.56
2022-11-06T06:56:22.023Z,98755.59
2022-11-06T06:58:50.995Z,98754.75
2022-11-06T07:01:19.815Z,98756.75
2022-11-06T07:03:50.258Z,98760.13
2022-11-06T07:06:20.480Z,98756.59
2022-11-06T07:08:49.815Z,98759.28
2022-11-06T07:11:19.279Z,98749.03
2022-11-06T07:13:48.095Z,98752.22
2022-11-06T07:16:17.024Z,98746.84
2022-11-06T07:18:45.926Z,98763.81
2022-11-06T07:21:16.402Z,98763.81
2022-11-06T07:23:46.388Z,98762.81
2022-11-06T07:26:15.259Z,98759.31
2022-11-06T07:28:44.223Z,98756.44
2022-11-06T07:31:13.519Z,98751.22
2022-11-06T07:33:42.500Z,98753.41
2022-11-06T07:36:12.259Z,98753.59
2022-11-06T07:38:43.332Z,98760.78
2022-11-06T07:41:13.094Z,98756.91
2022-11-06T07:43:41.980Z,98750.72
2022-11-06T07:46:13.052Z,98751.06
2022-11-06T07:48:42.145Z,98745.34
2022-11-06T07:51:11.647Z,98748.50
2022-11-06T07:53:42.234Z,98751.88
2022-11-06T07:56:11.584Z,98756.28
2022-11-06T07:58:40.583Z,98751.72
2022-11-06T08:01:17.710Z,98763.16
2022-11-06T08:03:47.529Z,98757.44
2022-11-06T08:06:16.282Z,98753.75
2022-11-06T08:08:46.761Z,98757.25
2022-11-06T08:11:15.610Z,98753.75
2022-11-06T08:13:44.398Z,98752.72
2022-11-06T08:16:14.199Z,98756.44
2022-11-06T08:18:43.501Z,98757.25
2022-11-06T08:21:12.273Z,98749.88
2022-11-06T08:23:41.100Z,98752.91
2022-11-06T08:26:11.496Z,98750.22
2022-11-06T08:28:40.307Z,98743.66
2022-11-06T08:31:09.291Z,98746.50
2022-11-06T08:33:38.495Z,98744.50
2022-11-06T08:36:08.004Z,98742.16
2022-11-06T08:38:36.902Z,98738.63
2022-11-06T08:41:07.915Z,98729.88
2022-11-06T08:43:38.409Z,98735.94
2022-11-06T08:46:07.489Z,98741.81
2022-11-06T08:48:36.351Z,98743.47
2022-11-06T08:51:06.166Z,98736.94
2022-11-06T08:53:35.238Z,98744.50
2022-11-06T08:56:04.735Z,98748.53
2022-11-06T08:58:33.525Z,98746.16
2022-11-06T09:01:03.787Z,98749.53
2022-11-06T09:03:32.666Z,98741.47
2022-11-06T09:06:01.563Z,98745.66
2022-11-06T09:08:30.493Z,98743.16
2022-11-06T09:10:59.342Z,98749.38
2022-11-06T09:13:28.237Z,98742.81
2022-11-06T09:15:57.119Z,98727.34
2022-11-06T09:18:27.309Z,98740.78
2022-11-06T09:20:57.067Z,98735.41
2022-11-06T09:23:26.102Z,98740.78
2022-11-06T09:25:54.947Z,98730.88
2022-11-06T09:28:23.793Z,98722.97
2022-11-06T09:30:52.567Z,98726.31
2022-11-06T09:33:21.674Z,98732.53
2022-11-06T09:35:52.874Z,98725.97
2022-11-06T09:38:21.637Z,98725.16
2022-11-06T09:40:52.603Z,98724.97
2022-11-06T09:46:29.085Z,98705.84
2022-11-06T09:48:59.964Z,98709.50
2022-11-06T09:51:37.628Z,98707.00
2022-11-06T09:54:09.483Z,98706.34
2022-11-06T09:56:39.428Z,98704.13
2022-11-06T09:59:10.896Z,98701.09
2022-11-06T10:01:42.433Z,98703.97
2022-11-06T10:04:19.880Z,98705.28
2022-11-06T10:06:50.131Z,98701.63
2022-11-06T10:09:18.952Z,98705.81
2022-11-06T10:11:53.490Z,98704.94
2022-11-06T10:14:30.039Z,98702.94
2022-11-06T10:17:00.973Z,98697.56
2022-11-06T10:19:35.995Z,98696.72
2022-11-06T10:22:10.581Z,98685.47
2022-11-06T10:24:41.030Z,98687.16
2022-11-06T10:27:13.364Z,98688.31
2022-11-06T10:30:04.998Z,98687.16
2022-11-06T10:33:03.287Z,98690.66
2022-11-06T10:35:34.785Z,98684.44
2022-11-06T10:38:07.285Z,98680.59
2022-11-06T10:40:36.407Z,98678.56
2022-11-06T10:43:10.145Z,98678.56
2022-11-06T10:45:39.123Z,98678.38
2022-11-06T10:48:16.175Z,98671.13
2022-11-06T10:50:49.898Z,98668.63
2022-11-06T10:53:22.883Z,98667.63
2022-11-06T10:56:10.955Z,98664.28
2022-11-06T10:58:40.281Z,98654.16
2022-11-06T11:01:10.335Z,98652.50
2022-11-06T11:03:41.118Z,98655.50
2022-11-06T11:06:09.977Z,98643.41
2022-11-06T11:08:42.207Z,98639.72
2022-11-06T11:11:22.907Z,98638.84
2022-11-06T11:13:53.411Z,98640.38
2022-11-06T11:16:23.875Z,98641.03
2022-11-06T11:18:52.958Z,98642.91
2022-11-06T11:21:26.332Z,98630.94
2022-11-06T11:24:08.977Z,98629.97
2022-11-06T11:26:39.788Z,98623.56
2022-11-06T11:29:17.037Z,98630.81
2022-11-06T11:31:48.069Z,98623.56
2022-11-06T11:34:18.925Z,98621.06
2022-11-06T11:36:52.223Z,98616.50
2022-11-06T11:39:23.430Z,98611.28
2022-11-06T11:41:52.208Z,98619.19
2022-11-06T11:44:21.613Z,98611.13
2022-11-06T11:46:51.394Z,98608.59
2022-11-06T11:49:29.011Z,98611.28
2022-11-06T11:51:58.386Z,98609.59
2022-11-06T11:54:29.856Z,98600.00
2022-11-06T11:57:07.391Z,98598.50
2022-11-06T11:59:38.874Z,98603.88
2022-11-06T12:02:15.164Z,98601.19
2022-11-06T12:04:45.083Z,98594.63
2022-11-06T12:07:23.618Z,98589.59
2022-11-06T12:09:53.814Z,98599.84
2022-11-06T12:12:23.634Z,98600.69
2022-11-06T12:15:16.117Z,98585.91
2022-11-06T12:19:36.919Z,98589.59
2022-11-06T12:22:08.549Z,98580.53
2022-11-06T12:24:40.539Z,98587.44
2022-11-06T12:27:12.073Z,98583.03
2022-11-06T12:29:42.346Z,98583.88
2022-11-06T12:32:20.017Z,98574.81
2022-11-06T12:34:53.756Z,98574.63
2022-11-06T12:37:25.010Z,98570.75
2022-11-06T12:39:55.756Z,98573.09
2022-11-06T12:42:25.818Z,98571.28
2022-11-06T12:44:54.532Z,98569.78
2022-11-06T12:47:29.993Z,98565.38
2022-11-06T12:50:06.251Z,98561.03
2022-11-06T12:52:44.717Z,98569.09
2022-11-06T12:55:19.392Z,98570.97
2022-11-06T12:58:04.008Z,98564.75
2022-11-06T13:00:34.518Z,98563.88
2022-11-06T13:03:27.766Z,98558.50
2022-11-06T13:06:00.728Z,98558.50
2022-11-06T13:08:35.587Z,98555.81
2022-11-06T13:11:10.508Z,98556.69
2022-11-06T13:13:50.988Z,98559.53
2022-11-06T13:16:25.968Z,98561.19
2022-11-06T13:18:57.263Z,98554.16
2022-11-06T13:21:32.932Z,98559.53
2022-11-06T13:24:04.212Z,98549.81
2022-11-06T13:26:36.228Z,98556.00
2022-11-06T13:29:05.688Z,98554.31
2022-11-06T13:31:37.363Z,98548.94
2022-11-06T13:34:06.373Z,98556.19
2022-11-06T13:36:37.705Z,98543.56
2022-11-06T13:39:08.054Z,98538.38
2022-11-06T13:41:36.824Z,98536.69
2022-11-06T13:44:06.550Z,98525.28
2022-11-06T13:46:39.808Z,98535.16
2022-11-06T13:49:17.702Z,98525.28
2022-11-06T13:51:51.561Z,98527.97
2022-11-06T13:54:25.156Z,98533.34
2022-11-06T13:57:22.958Z,98518.19
2022-11-06T14:00:19.420Z,98513.84
2022-11-06T14:03:21.155Z,98511.16
2022-11-06T14:05:55.301Z,98517.38
2022-11-06T14:08:28.286Z,98511.16
2022-11-06T14:10:59.557Z,98513.03
2022-11-06T14:13:30.142Z,98516.53
2022-11-06T14:16:27.797Z,98517.56
2022-11-06T14:18:58.393Z,98514.00
2022-11-06T14:21:46.158Z,98518.56
2022-11-06T14:24:30.701Z,98508.63
2022-11-06T14:26:59.876Z,98506.97
2022-11-06T14:30:02.280Z,98515.88
2022-11-06T14:32:45.057Z,98517.56
2022-11-06T14:35:47.280Z,98516.91
2022-11-06T14:38:39.569Z,98512.34
2022-11-06T14:41:51.126Z,98504.75
2022-11-06T14:44:42.858Z,98519.03
2022-11-06T14:47:23.152Z,98517.00
2022-11-06T14:49:53.031Z,98512.66
2022-11-06T14:52:22.313Z,98517.84
2022-11-06T14:55:03.472Z,98522.59
2022-11-06T14:57:45.811Z,98516.53
2022-11-06T15:00:32.661Z,98514.88
2022-11-06T15:03:01.686Z,98514.00
2022-11-06T15:05:31.416Z,98514.88
2022-11-06T15:08:15.378Z,98518.41
2022-11-06T15:10:54.759Z,98513.19
2022-11-06T15:13:31.196Z,98517.72
2022-11-06T15:16:12.364Z,98512.34
2022-11-06T15:18:42.122Z,98513.19
2022-11-06T15:21:11.747Z,98508.63
2022-11-06T15:23:43.314Z,98513.03
2022-11-06T15:26:19.497Z,98510.50
2022-11-06T15:28:49.997Z,98510.50
2022-11-06T15:31:20.262Z,98502.41
2022-11-06T15:33:55.707Z,98502.41
2022-11-06T15:36:24.884Z,98498.06
2022-11-06T15:38:53.772Z,98494.56
2022-11-06T15:41:24.146Z,98493.53
2022-11-06T15:43:55.056Z,98498.91
2022-11-06T15:46:26.368Z,98497.25
2022-11-06T15:49:19.399Z,98497.03
2022-11-06T15:51:55.568Z,98499.72
2022-11-06T15:54:36.124Z,98497.03
2022-11-06T15:57:07.130Z,98494.34
2022-11-06T15:59:36.073Z,98489.16
2022-11-06T16:02:11.087Z,98490.84
2022-11-06T16:04:40.866Z,98497.03
2022-11-06T16:07:09.657Z,98501.13
2022-11-06T16:09:38.762Z,98495.38
2022-11-06T16:12:08.367Z,98496.06
2022-11-06T16:14:40.611Z,98488.81
2022-11-06T16:17:12.526Z,98498.75
2022-11-06T16:19:41.581Z,98496.06
2022-11-06T16:22:11.973Z,98496.06
2022-11-06T16:24:43.043Z,98489.66
2022-11-06T16:27:11.842Z,98495.84
2022-11-06T16:29:40.728Z,98492.34
2022-11-06T16:32:16.676Z,98482.59
2022-11-06T16:34:46.590Z,98487.78
2022-11-06T16:37:37.724Z,98481.38
2022-11-06T16:40:23.339Z,98482.41
2022-11-06T16:43:02.517Z,98477.84
2022-11-06T16:45:32.006Z,98492.13
2022-11-06T16:48:32.317Z,98475.16
2022-11-06T16:51:01.987Z,98487.63
2022-11-06T16:53:31.645Z,98475.00
2022-11-06T16:56:01.530Z,98460.72
2022-11-06T16:58:30.452Z,98461.56
2022-11-06T17:01:01.533Z,98459.69
2022-11-06T17:03:36.094Z,98462.22
2022-11-06T17:06:05.063Z,98462.38
2022-11-06T17:08:38.595Z,98464.06
2022-11-06T17:11:21.659Z,98459.53
2022-11-06T17:13:51.202Z,98451.47
2022-11-06T17:16:20.852Z,98449.59
2022-11-06T17:18:51.130Z,98450.59
2022-11-06T17:21:21.101Z,98451.63
2022-11-06T17:23:50.221Z,98447.59
2022-11-06T17:26:21.145Z,98447.75
2022-11-06T17:28:49.984Z,98455.66
2022-11-06T17:31:19.826Z,98449.41
2022-11-06T17:33:50.156Z,98453.81
2022-11-06T17:36:21.144Z,98448.59
2022-11-06T17:38:50.089Z,98451.28
2022-11-06T17:41:30.077Z,98453.97
2022-11-06T17:44:02.615Z,98446.91
2022-11-06T17:46:32.580Z,98448.78
2022-11-06T17:49:02.780Z,98445.06
2022-11-06T17:51:58.402Z,98449.59
2022-11-06T17:54:28.309Z,98445.91
2022-11-06T17:56:57.446Z,98445.91
2022-11-06T17:59:26.285Z,98448.78
2022-11-06T18:01:55.916Z,98445.91
2022-11-06T18:04:27.104Z,98453.13
2022-11-06T18:06:56.125Z,98455.66
2022-11-06T18:09:25.795Z,98442.84
2022-11-06T18:11:55.087Z,98449.09
2022-11-06T18:14:25.055Z,98444.53
2022-11-06T18:16:53.956Z,98441.84
2022-11-06T18:19:23.972Z,98444.03
2022-11-06T18:21:54.394Z,98441.34
2022-11-06T18:24:23.301Z,98435.28
2022-11-06T18:26:52.215Z,98438.50
2022-11-06T18:29:21.287Z,98432.09
2022-11-06T18:31:50.131Z,98429.41
2022-11-06T18:34:21.196Z,98419.19
2022-11-06T18:36:51.237Z,98428.41
2022-11-06T18:39:21.903Z,98424.69
2022-11-06T18:41:51.062Z,98419.59
2022-11-06T18:44:19.964Z,98425.72
2022-11-06T18:46:48.880Z,98420.34
2022-11-06T18:49:17.723Z,98427.00
2022-11-06T18:51:46.530Z,98423.03
2022-11-06T18:54:15.432Z,98409.56
2022-11-06T18:56:45.733Z,98408.53
2022-11-06T18:59:15.714Z,98406.88
2022-11-06T19:01:44.654Z,98399.63
2022-11-06T19:04:13.613Z,98404.19
2022-11-06T19:06:42.625Z,98394.25
2022-11-06T19:09:11.445Z,98397.78
2022-11-06T19:11:40.978Z,98392.03
2022-11-06T19:14:11.129Z,98396.41
2022-11-06T19:16:40.177Z,98398.09
2022-11-06T19:19:09.079Z,98400.78
2022-11-06T19:21:38.017Z,98399.94
2022-11-06T19:24:07.339Z,98393.72
2022-11-06T19:26:36.583Z,98392.03
2022-11-06T19:29:07.640Z,98391.88
2022-11-06T19:31:37.963Z,98390.19
2022-11-06T19:34:07.591Z,98376.56
2022-11-06T19:36:36.551Z,98384.63
2022-11-06T19:39:05.553Z,98378.22
2022-11-06T19:41:34.593Z,98378.59
2022-11-06T19:44:03.393Z,98369.84
2022-11-06T19:46:35.844Z,98370.88
2022-11-06T19:49:07.106Z,98374.25
2022-11-06T19:51:37.533Z,98373.22
2022-11-06T19:54:07.664Z,98379.78
2022-11-06T19:56:36.519Z,98379.78
2022-11-06T19:59:25.575Z,98376.25
2022-11-06T20:01:54.581Z,98381.66
2022-11-06T20:04:25.037Z,98371.72
2022-11-06T20:06:53.882Z,98370.06
2022-11-06T20:09:22.694Z,98375.44
2022-11-06T20:11:53.112Z,98375.59
2022-11-06T20:14:21.949Z,98380.97
2022-11-06T20:16:51.039Z,98383.66
2022-11-06T20:19:19.948Z,98382.00
2022-11-06T20:21:50.156Z,98388.22
2022-11-06T20:24:18.933Z,98385.53
2022-11-06T20:26:47.916Z,98390.91
2022-11-06T20:29:16.765Z,98391.09
2022-11-06T20:31:45.733Z,98377.66
2022-11-06T20:34:14.538Z,98383.03
2022-11-06T20:36:43.319Z,98379.31
2022-11-06T20:39:15.367Z,98383.88
2022-11-06T20:41:44.468Z,98382.16
2022-11-06T20:44:13.328Z,98386.56
2022-11-06T20:46:42.271Z,98390.06
2022-11-06T20:49:11.412Z,98386.34
2022-11-06T20:52:07.344Z,98376.63
2022-11-06T20:54:30.553Z,98372.91
2022-11-06T20:56:59.508Z,98363.19
2022-11-06T20:59:31.068Z,98368.19
2022-11-06T21:02:00.156Z,98362.81
2022-11-06T21:04:30.027Z,98368.19
2022-11-06T21:06:59.085Z,98362.81
2022-11-06T21:09:29.337Z,98357.44
2022-11-06T21:11:58.314Z,98361.78
2022-11-06T21:14:27.221Z,98369.84
2022-11-06T21:16:56.705Z,98375.22
2022-11-06T21:19:25.562Z,98371.72
2022-11-06T21:21:56.876Z,98368.19
2022-11-06T21:24:25.755Z,98368.19
2022-11-06T21:26:56.532Z,98376.09
2022-11-06T21:29:25.658Z,98373.41
2022-11-06T21:31:55.058Z,98365.50
2022-11-06T21:34:24.741Z,98366.53
2022-11-06T21:36:56.911Z,98362.44
2022-11-06T21:39:34.573Z,98357.28
2022-11-06T21:42:06.601Z,98356.25
2022-11-06T21:44:35.483Z,98350.03
2022-11-06T21:47:04.399Z,98350.03
2022-11-06T21:49:33.283Z,98340.94
2022-11-06T21:52:28.075Z,98325.81
2022-11-06T21:55:15.866Z,98331.19
2022-11-06T21:57:47.245Z,98335.75
2022-11-06T22:00:16.686Z,98331.88
2022-11-06T22:02:45.816Z,98324.78
2022-11-06T22:05:14.763Z,98325.63
2022-11-06T22:07:43.612Z,98325.63
2022-11-06T22:10:12.557Z,98316.72
2022-11-06T22:12:41.395Z,98322.09
2022-11-06T22:15:11.946Z,98316.72
2022-11-06T22:17:40.766Z,98322.09
2022-11-06T22:20:10.425Z,98321.09
2022-11-06T22:22:39.263Z,98318.56
2022-11-06T22:25:08.848Z,98315.72
2022-11-06T22:27:40.907Z,98321.09
2022-11-06T22:30:13.195Z,98310.34
2022-11-06T22:32:42.897Z,98307.00
2022-11-06T22:35:11.878Z,98310.34
2022-11-06T22:37:40.667Z,98304.09
2022-11-06T22:40:10.997Z,98304.47
2022-11-06T22:42:39.964Z,98306.31
2022-11-06T22:45:11.371Z,98315.44
2022-11-06T22:47:40.514Z,98311.91
2022-11-06T22:50:10.037Z,98304.66
2022-11-06T22:52:38.782Z,98310.22
2022-11-06T22:55:08.181Z,98307.53
2022-11-06T22:57:36.931Z,98300.66
2022-11-06T23:00:06.814Z,98301.47
2022-11-06T23:02:37.129Z,98300.47
2022-11-06T23:05:06.388Z,98300.66
2022-11-06T23:07:35.142Z,98298.78
2022-11-06T23:10:04.050Z,98293.63
2022-11-06T23:12:32.859Z,98293.63
2022-11-06T23:15:01.695Z,98302.50
2022-11-06T23:17:30.513Z,98295.47
2022-11-06T23:20:00.905Z,98295.94
2022-11-06T23:22:38.361Z,98292.88
2022-11-06T23:25:07.903Z,98294.06
2022-11-06T23:27:36.915Z,98286.38
2022-11-06T23:30:06.639Z,98289.91
2022-11-06T23:32:36.456Z,98295.63
2022-11-06T23:35:10.342Z,98292.94
2022-11-06T23:37:42.222Z,98299.34
2022-11-06T23:40:12.307Z,98296.66
2022-11-06T23:42:41.198Z,98294.16
2022-11-06T23:45:29.309Z,98299.34
2022-11-06T23:47:58.166Z,98280.03
2022-11-06T23:50:28.436Z,98288.78
2022-11-06T23:52:57.245Z,98289.78
2022-11-06T23:55:26.178Z,98290.63
2022-11-06T23:57:55.032Z,98302.41
